sensor_id;sensor_type;location;lat;lon;timestamp;P1;durP1;ratioP1;P2;durP2;ratioP2
20855;SDS011;63058;49.424;8.420;2023-03-01T00:02:03;6.87;;;4.70;;
20855;SDS011;63058;49.424;8.420;2023-03-01T00:04:29;7.50;;;4.93;;
20855;SDS011;63058;49.424;8.420;2023-03-01T00:06:55;7.70;;;4.37;;
20855;SDS011;63058;49.424;8.420;2023-03-01T00:09:21;8.77;;;4.97;;
20855;SDS011;63058;49.424;8.420;2023-03-01T00:11:49;9.37;;;5.77;;
20855;SDS011;63058;49.424;8.420;2023-03-01T00:14:15;8.50;;;5.77;;
20855;SDS011;63058;49.424;8.420;2023-03-01T00:16:44;7.57;;;4.73;;
20855;SDS011;63058;49.424;8.420;2023-03-01T00:19:14;7.23;;;4.37;;
20855;SDS011;63058;49.424;8.420;2023-03-01T00:21:42;10.07;;;6.10;;
20855;SDS011;63058;49.424;8.420;2023-03-01T00:24:08;8.87;;;5.37;;
20855;SDS011;63058;49.424;8.420;2023-03-01T00:26:34;7.17;;;4.90;;
20855;SDS011;63058;49.424;8.420;2023-03-01T00:29:00;8.03;;;4.83;;
20855;SDS011;63058;49.424;8.420;2023-03-01T00:31:30;6.87;;;4.70;;
20855;SDS011;63058;49.424;8.420;2023-03-01T00:33:58;9.40;;;6.17;;
20855;SDS011;63058;49.424;8.420;2023-03-01T00:36:26;8.03;;;5.00;;
20855;SDS011;63058;49.424;8.420;2023-03-01T00:38:55;7.43;;;5.40;;
20855;SDS011;63058;49.424;8.420;2023-03-01T00:41:21;8.40;;;5.10;;
20855;SDS011;63058;49.424;8.420;2023-03-01T00:43:48;9.10;;;6.17;;
20855;SDS011;63058;49.424;8.420;2023-03-01T00:46:16;10.03;;;6.47;;
20855;SDS011;63058;49.424;8.420;2023-03-01T00:48:43;7.10;;;4.83;;
20855;SDS011;63058;49.424;8.420;2023-03-01T00:51:10;7.83;;;5.20;;
20855;SDS011;63058;49.424;8.420;2023-03-01T00:53:40;8.33;;;5.20;;
20855;SDS011;63058;49.424;8.420;2023-03-01T00:56:08;9.87;;;5.50;;
20855;SDS011;63058;49.424;8.420;2023-03-01T00:58:35;11.10;;;6.63;;
20855;SDS011;63058;49.424;8.420;2023-03-01T01:01:01;8.93;;;5.93;;
20855;SDS011;63058;49.424;8.420;2023-03-01T01:03:41;7.23;;;5.47;;
20855;SDS011;63058;49.424;8.420;2023-03-01T01:06:12;11.80;;;7.87;;
20855;SDS011;63058;49.424;8.420;2023-03-01T01:08:52;9.47;;;6.30;;
20855;SDS011;63058;49.424;8.420;2023-03-01T01:11:19;12.03;;;6.83;;
20855;SDS011;63058;49.424;8.420;2023-03-01T01:13:45;9.37;;;5.77;;
20855;SDS011;63058;49.424;8.420;2023-03-01T01:16:12;11.17;;;6.50;;
20855;SDS011;63058;49.424;8.420;2023-03-01T01:18:39;7.83;;;5.47;;
20855;SDS011;63058;49.424;8.420;2023-03-01T01:21:13;7.50;;;5.73;;
20855;SDS011;63058;49.424;8.420;2023-03-01T01:23:41;8.30;;;5.40;;
20855;SDS011;63058;49.424;8.420;2023-03-01T01:26:12;8.43;;;5.40;;
20855;SDS011;63058;49.424;8.420;2023-03-01T01:28:42;7.17;;;4.57;;
20855;SDS011;63058;49.424;8.420;2023-03-01T01:31:08;7.13;;;5.17;;
20855;SDS011;63058;49.424;8.420;2023-03-01T01:33:34;7.13;;;4.73;;
20855;SDS011;63058;49.424;8.420;2023-03-01T01:36:00;8.57;;;5.40;;
20855;SDS011;63058;49.424;8.420;2023-03-01T01:38:26;7.03;;;5.00;;
20855;SDS011;63058;49.424;8.420;2023-03-01T01:40:52;9.40;;;5.97;;
20855;SDS011;63058;49.424;8.420;2023-03-01T01:43:19;8.77;;;5.63;;
20855;SDS011;63058;49.424;8.420;2023-03-01T01:48:43;7.37;;;5.00;;
20855;SDS011;63058;49.424;8.420;2023-03-01T01:51:13;8.10;;;5.60;;
20855;SDS011;63058;49.424;8.420;2023-03-01T01:53:44;10.07;;;7.03;;
20855;SDS011;63058;49.424;8.420;2023-03-01T01:56:14;9.40;;;5.67;;
20855;SDS011;63058;49.424;8.420;2023-03-01T01:58:42;8.53;;;5.77;;
20855;SDS011;63058;49.424;8.420;2023-03-01T02:01:09;8.63;;;5.60;;
20855;SDS011;63058;49.424;8.420;2023-03-01T02:03:36;8.37;;;5.73;;
20855;SDS011;63058;49.424;8.420;2023-03-01T02:06:29;9.00;;;5.60;;
20855;SDS011;63058;49.424;8.420;2023-03-01T02:08:55;11.60;;;5.50;;
20855;SDS011;63058;49.424;8.420;2023-03-01T02:11:25;9.47;;;6.23;;
20855;SDS011;63058;49.424;8.420;2023-03-01T02:13:52;8.33;;;5.83;;
20855;SDS011;63058;49.424;8.420;2023-03-01T02:16:19;6.50;;;4.80;;
20855;SDS011;63058;49.424;8.420;2023-03-01T02:18:45;8.27;;;6.20;;
20855;SDS011;63058;49.424;8.420;2023-03-01T02:26:57;7.03;;;4.87;;
20855;SDS011;63058;49.424;8.420;2023-03-01T02:29:23;8.20;;;5.33;;
20855;SDS011;63058;49.424;8.420;2023-03-01T02:31:50;7.33;;;5.50;;
20855;SDS011;63058;49.424;8.420;2023-03-01T02:34:18;8.50;;;5.40;;
20855;SDS011;63058;49.424;8.420;2023-03-01T02:39:31;8.23;;;5.33;;
20855;SDS011;63058;49.424;8.420;2023-03-01T02:42:01;6.73;;;4.60;;
20855;SDS011;63058;49.424;8.420;2023-03-01T02:44:29;7.63;;;5.40;;
20855;SDS011;63058;49.424;8.420;2023-03-01T02:46:55;6.93;;;5.20;;
20855;SDS011;63058;49.424;8.420;2023-03-01T02:49:26;6.57;;;4.73;;
20855;SDS011;63058;49.424;8.420;2023-03-01T02:57:11;7.87;;;5.57;;
20855;SDS011;63058;49.424;8.420;2023-03-01T02:59:37;7.80;;;5.53;;
20855;SDS011;63058;49.424;8.420;2023-03-01T03:02:05;8.27;;;6.23;;
20855;SDS011;63058;49.424;8.420;2023-03-01T03:04:32;8.53;;;5.77;;
20855;SDS011;63058;49.424;8.420;2023-03-01T03:06:57;10.23;;;6.23;;
20855;SDS011;63058;49.424;8.420;2023-03-01T03:09:23;7.87;;;5.30;;
20855;SDS011;63058;49.424;8.420;2023-03-01T03:11:49;8.97;;;6.60;;
20855;SDS011;63058;49.424;8.420;2023-03-01T03:14:15;8.07;;;5.93;;
20855;SDS011;63058;49.424;8.420;2023-03-01T03:16:45;10.90;;;7.10;;
20855;SDS011;63058;49.424;8.420;2023-03-01T03:19:12;9.73;;;6.87;;
20855;SDS011;63058;49.424;8.420;2023-03-01T03:21:39;9.43;;;6.50;;
20855;SDS011;63058;49.424;8.420;2023-03-01T03:24:04;9.37;;;6.47;;
20855;SDS011;63058;49.424;8.420;2023-03-01T03:26:30;9.40;;;6.53;;
20855;SDS011;63058;49.424;8.420;2023-03-01T03:28:56;10.40;;;6.00;;
20855;SDS011;63058;49.424;8.420;2023-03-01T03:31:22;10.97;;;7.50;;
20855;SDS011;63058;49.424;8.420;2023-03-01T03:33:48;9.03;;;6.30;;
20855;SDS011;63058;49.424;8.420;2023-03-01T03:36:17;10.50;;;6.60;;
20855;SDS011;63058;49.424;8.420;2023-03-01T03:38:45;8.53;;;6.23;;
20855;SDS011;63058;49.424;8.420;2023-03-01T03:41:11;11.17;;;7.07;;
20855;SDS011;63058;49.424;8.420;2023-03-01T03:43:38;10.53;;;6.87;;
20855;SDS011;63058;49.424;8.420;2023-03-01T03:46:05;11.83;;;7.07;;
20855;SDS011;63058;49.424;8.420;2023-03-01T03:48:34;11.37;;;6.60;;
20855;SDS011;63058;49.424;8.420;2023-03-01T03:51:02;12.60;;;7.37;;
20855;SDS011;63058;49.424;8.420;2023-03-01T03:53:30;13.93;;;7.30;;
20855;SDS011;63058;49.424;8.420;2023-03-01T03:55:56;12.30;;;8.23;;
20855;SDS011;63058;49.424;8.420;2023-03-01T03:58:23;11.87;;;7.57;;
20855;SDS011;63058;49.424;8.420;2023-03-01T04:00:51;14.17;;;8.77;;
20855;SDS011;63058;49.424;8.420;2023-03-01T04:03:20;11.00;;;7.60;;
20855;SDS011;63058;49.424;8.420;2023-03-01T04:05:47;10.37;;;7.17;;
20855;SDS011;63058;49.424;8.420;2023-03-01T04:08:15;11.07;;;7.93;;
20855;SDS011;63058;49.424;8.420;2023-03-01T04:10:46;10.70;;;7.40;;
20855;SDS011;63058;49.424;8.420;2023-03-01T04:13:14;14.60;;;9.10;;
20855;SDS011;63058;49.424;8.420;2023-03-01T04:15:44;13.10;;;8.30;;
20855;SDS011;63058;49.424;8.420;2023-03-01T04:18:17;12.70;;;7.73;;
20855;SDS011;63058;49.424;8.420;2023-03-01T04:20:45;13.73;;;8.50;;
20855;SDS011;63058;49.424;8.420;2023-03-01T04:23:15;14.73;;;7.27;;
20855;SDS011;63058;49.424;8.420;2023-03-01T04:25:55;12.00;;;7.53;;
20855;SDS011;63058;49.424;8.420;2023-03-01T04:30:52;12.10;;;7.70;;
20855;SDS011;63058;49.424;8.420;2023-03-01T04:33:19;11.33;;;7.73;;
20855;SDS011;63058;49.424;8.420;2023-03-01T04:35:46;10.87;;;7.13;;
20855;SDS011;63058;49.424;8.420;2023-03-01T04:38:14;10.87;;;7.50;;
20855;SDS011;63058;49.424;8.420;2023-03-01T04:40:40;12.23;;;7.57;;
20855;SDS011;63058;49.424;8.420;2023-03-01T04:43:08;11.10;;;7.40;;
20855;SDS011;63058;49.424;8.420;2023-03-01T04:45:35;10.10;;;7.10;;
20855;SDS011;63058;49.424;8.420;2023-03-01T04:48:01;10.47;;;7.40;;
20855;SDS011;63058;49.424;8.420;2023-03-01T04:50:28;9.77;;;6.73;;
20855;SDS011;63058;49.424;8.420;2023-03-01T04:52:55;9.37;;;6.73;;
20855;SDS011;63058;49.424;8.420;2023-03-01T04:55:23;10.50;;;7.27;;
20855;SDS011;63058;49.424;8.420;2023-03-01T04:57:51;11.70;;;8.13;;
20855;SDS011;63058;49.424;8.420;2023-03-01T05:00:17;11.00;;;8.00;;
20855;SDS011;63058;49.424;8.420;2023-03-01T05:02:46;11.23;;;7.67;;
20855;SDS011;63058;49.424;8.420;2023-03-01T05:05:14;11.17;;;8.03;;
20855;SDS011;63058;49.424;8.420;2023-03-01T05:07:40;13.23;;;8.20;;
20855;SDS011;63058;49.424;8.420;2023-03-01T05:10:06;10.57;;;7.27;;
20855;SDS011;63058;49.424;8.420;2023-03-01T05:12:32;9.53;;;6.37;;
20855;SDS011;63058;49.424;8.420;2023-03-01T05:14:57;13.43;;;8.80;;
20855;SDS011;63058;49.424;8.420;2023-03-01T05:17:23;13.47;;;7.97;;
20855;SDS011;63058;49.424;8.420;2023-03-01T05:19:49;13.47;;;9.00;;
20855;SDS011;63058;49.424;8.420;2023-03-01T05:22:15;11.80;;;8.00;;
20855;SDS011;63058;49.424;8.420;2023-03-01T05:24:41;13.13;;;8.33;;
20855;SDS011;63058;49.424;8.420;2023-03-01T05:27:07;14.23;;;9.13;;
20855;SDS011;63058;49.424;8.420;2023-03-01T05:29:32;12.13;;;8.20;;
20855;SDS011;63058;49.424;8.420;2023-03-01T05:32:00;12.73;;;7.70;;
20855;SDS011;63058;49.424;8.420;2023-03-01T05:34:31;13.80;;;8.50;;
20855;SDS011;63058;49.424;8.420;2023-03-01T05:36:59;11.30;;;7.43;;
20855;SDS011;63058;49.424;8.420;2023-03-01T05:39:25;10.17;;;6.83;;
20855;SDS011;63058;49.424;8.420;2023-03-01T05:41:56;10.10;;;6.77;;
20855;SDS011;63058;49.424;8.420;2023-03-01T05:44:23;19.13;;;8.17;;
20855;SDS011;63058;49.424;8.420;2023-03-01T05:46:50;13.73;;;9.07;;
20855;SDS011;63058;49.424;8.420;2023-03-01T05:49:16;14.37;;;8.13;;
20855;SDS011;63058;49.424;8.420;2023-03-01T05:51:42;12.57;;;8.37;;
20855;SDS011;63058;49.424;8.420;2023-03-01T05:54:09;12.47;;;8.27;;
20855;SDS011;63058;49.424;8.420;2023-03-01T05:56:35;11.23;;;7.97;;
20855;SDS011;63058;49.424;8.420;2023-03-01T05:59:02;12.10;;;8.20;;
20855;SDS011;63058;49.424;8.420;2023-03-01T06:01:30;12.73;;;7.87;;
20855;SDS011;63058;49.424;8.420;2023-03-01T06:03:56;15.17;;;8.23;;
20855;SDS011;63058;49.424;8.420;2023-03-01T06:06:22;12.27;;;7.93;;
20855;SDS011;63058;49.424;8.420;2023-03-01T06:08:48;14.23;;;8.93;;
20855;SDS011;63058;49.424;8.420;2023-03-01T06:11:14;12.53;;;8.23;;
20855;SDS011;63058;49.424;8.420;2023-03-01T06:13:43;11.40;;;7.83;;
20855;SDS011;63058;49.424;8.420;2023-03-01T06:16:09;10.67;;;7.10;;
20855;SDS011;63058;49.424;8.420;2023-03-01T06:18:36;12.63;;;7.27;;
20855;SDS011;63058;49.424;8.420;2023-03-01T06:21:02;13.57;;;8.33;;
20855;SDS011;63058;49.424;8.420;2023-03-01T06:23:28;11.53;;;8.30;;
20855;SDS011;63058;49.424;8.420;2023-03-01T06:25:54;11.40;;;7.90;;
20855;SDS011;63058;49.424;8.420;2023-03-01T06:28:20;12.00;;;7.57;;
20855;SDS011;63058;49.424;8.420;2023-03-01T06:30:46;12.00;;;8.37;;
20855;SDS011;63058;49.424;8.420;2023-03-01T06:33:12;15.30;;;9.27;;
20855;SDS011;63058;49.424;8.420;2023-03-01T06:35:38;15.40;;;8.90;;
20855;SDS011;63058;49.424;8.420;2023-03-01T06:38:03;14.23;;;9.23;;
20855;SDS011;63058;49.424;8.420;2023-03-01T06:40:30;14.37;;;9.33;;
20855;SDS011;63058;49.424;8.420;2023-03-01T06:42:56;10.60;;;7.43;;
20855;SDS011;63058;49.424;8.420;2023-03-01T06:45:22;12.30;;;8.37;;
20855;SDS011;63058;49.424;8.420;2023-03-01T06:47:48;13.17;;;8.20;;
20855;SDS011;63058;49.424;8.420;2023-03-01T06:50:15;12.27;;;8.07;;
20855;SDS011;63058;49.424;8.420;2023-03-01T06:52:41;15.10;;;8.53;;
20855;SDS011;63058;49.424;8.420;2023-03-01T06:55:09;15.40;;;9.07;;
20855;SDS011;63058;49.424;8.420;2023-03-01T06:57:36;11.50;;;7.67;;
20855;SDS011;63058;49.424;8.420;2023-03-01T07:00:02;10.87;;;7.80;;
20855;SDS011;63058;49.424;8.420;2023-03-01T07:02:29;12.17;;;7.97;;
20855;SDS011;63058;49.424;8.420;2023-03-01T07:04:54;11.80;;;8.70;;
20855;SDS011;63058;49.424;8.420;2023-03-01T07:07:20;15.70;;;9.40;;
20855;SDS011;63058;49.424;8.420;2023-03-01T07:09:46;13.70;;;8.20;;
20855;SDS011;63058;49.424;8.420;2023-03-01T07:12:13;13.40;;;8.50;;
20855;SDS011;63058;49.424;8.420;2023-03-01T07:14:39;13.17;;;9.27;;
20855;SDS011;63058;49.424;8.420;2023-03-01T07:17:05;13.13;;;9.23;;
20855;SDS011;63058;49.424;8.420;2023-03-01T07:19:30;18.50;;;12.53;;
20855;SDS011;63058;49.424;8.420;2023-03-01T07:21:56;13.97;;;9.10;;
20855;SDS011;63058;49.424;8.420;2023-03-01T07:24:22;14.13;;;9.17;;
20855;SDS011;63058;49.424;8.420;2023-03-01T07:26:48;21.77;;;11.93;;
20855;SDS011;63058;49.424;8.420;2023-03-01T07:29:15;15.53;;;9.93;;
20855;SDS011;63058;49.424;8.420;2023-03-01T07:31:41;12.87;;;9.00;;
20855;SDS011;63058;49.424;8.420;2023-03-01T07:34:06;12.23;;;8.17;;
20855;SDS011;63058;49.424;8.420;2023-03-01T07:36:32;13.33;;;8.37;;
20855;SDS011;63058;49.424;8.420;2023-03-01T07:38:57;11.77;;;8.40;;
20855;SDS011;63058;49.424;8.420;2023-03-01T07:41:23;14.30;;;8.87;;
20855;SDS011;63058;49.424;8.420;2023-03-01T07:43:51;13.13;;;8.73;;
20855;SDS011;63058;49.424;8.420;2023-03-01T07:46:16;12.67;;;8.20;;
20855;SDS011;63058;49.424;8.420;2023-03-01T07:48:44;12.77;;;8.67;;
20855;SDS011;63058;49.424;8.420;2023-03-01T07:51:09;14.53;;;8.73;;
20855;SDS011;63058;49.424;8.420;2023-03-01T07:53:35;21.33;;;13.30;;
20855;SDS011;63058;49.424;8.420;2023-03-01T07:56:02;15.03;;;9.70;;
20855;SDS011;63058;49.424;8.420;2023-03-01T07:58:35;13.17;;;8.97;;
20855;SDS011;63058;49.424;8.420;2023-03-01T08:01:06;13.33;;;8.70;;
20855;SDS011;63058;49.424;8.420;2023-03-01T08:03:42;13.40;;;8.50;;
20855;SDS011;63058;49.424;8.420;2023-03-01T08:06:12;13.00;;;8.03;;
20855;SDS011;63058;49.424;8.420;2023-03-01T08:08:39;13.43;;;8.03;;
20855;SDS011;63058;49.424;8.420;2023-03-01T08:11:05;13.97;;;9.17;;
20855;SDS011;63058;49.424;8.420;2023-03-01T08:13:32;12.23;;;8.37;;
20855;SDS011;63058;49.424;8.420;2023-03-01T08:16:02;15.27;;;9.37;;
20855;SDS011;63058;49.424;8.420;2023-03-01T08:18:28;13.60;;;8.77;;
20855;SDS011;63058;49.424;8.420;2023-03-01T08:20:54;13.70;;;8.77;;
20855;SDS011;63058;49.424;8.420;2023-03-01T08:23:19;16.50;;;9.97;;
20855;SDS011;63058;49.424;8.420;2023-03-01T08:25:45;11.40;;;8.07;;
20855;SDS011;63058;49.424;8.420;2023-03-01T08:28:11;17.93;;;10.43;;
20855;SDS011;63058;49.424;8.420;2023-03-01T08:30:36;17.70;;;10.50;;
20855;SDS011;63058;49.424;8.420;2023-03-01T08:33:02;16.47;;;10.63;;
20855;SDS011;63058;49.424;8.420;2023-03-01T08:35:27;15.60;;;10.17;;
20855;SDS011;63058;49.424;8.420;2023-03-01T08:37:53;14.87;;;9.97;;
20855;SDS011;63058;49.424;8.420;2023-03-01T08:40:19;15.37;;;10.57;;
20855;SDS011;63058;49.424;8.420;2023-03-01T08:42:44;21.00;;;11.67;;
20855;SDS011;63058;49.424;8.420;2023-03-01T08:45:10;16.50;;;10.77;;
20855;SDS011;63058;49.424;8.420;2023-03-01T08:47:39;17.87;;;10.80;;
20855;SDS011;63058;49.424;8.420;2023-03-01T08:50:04;15.47;;;10.47;;
20855;SDS011;63058;49.424;8.420;2023-03-01T08:52:31;14.23;;;9.70;;
20855;SDS011;63058;49.424;8.420;2023-03-01T08:54:57;19.77;;;12.40;;
20855;SDS011;63058;49.424;8.420;2023-03-01T08:57:23;18.63;;;11.70;;
20855;SDS011;63058;49.424;8.420;2023-03-01T08:59:49;14.10;;;10.17;;
20855;SDS011;63058;49.424;8.420;2023-03-01T09:02:15;13.07;;;9.00;;
20855;SDS011;63058;49.424;8.420;2023-03-01T09:04:42;12.50;;;9.00;;
20855;SDS011;63058;49.424;8.420;2023-03-01T09:07:09;14.53;;;9.50;;
20855;SDS011;63058;49.424;8.420;2023-03-01T09:09:35;19.70;;;10.03;;
20855;SDS011;63058;49.424;8.420;2023-03-01T09:12:01;15.40;;;10.00;;
20855;SDS011;63058;49.424;8.420;2023-03-01T09:14:28;13.87;;;8.80;;
20855;SDS011;63058;49.424;8.420;2023-03-01T09:16:54;16.20;;;10.83;;
20855;SDS011;63058;49.424;8.420;2023-03-01T09:19:19;14.13;;;9.63;;
20855;SDS011;63058;49.424;8.420;2023-03-01T09:21:45;15.80;;;9.73;;
20855;SDS011;63058;49.424;8.420;2023-03-01T09:24:17;14.67;;;9.13;;
20855;SDS011;63058;49.424;8.420;2023-03-01T09:26:48;13.67;;;9.03;;
20855;SDS011;63058;49.424;8.420;2023-03-01T09:29:14;11.90;;;8.27;;
20855;SDS011;63058;49.424;8.420;2023-03-01T09:31:41;16.93;;;9.50;;
20855;SDS011;63058;49.424;8.420;2023-03-01T09:34:07;20.47;;;13.57;;
20855;SDS011;63058;49.424;8.420;2023-03-01T09:36:33;18.23;;;9.63;;
20855;SDS011;63058;49.424;8.420;2023-03-01T09:39:00;17.00;;;10.47;;
20855;SDS011;63058;49.424;8.420;2023-03-01T09:44:27;13.57;;;8.33;;
20855;SDS011;63058;49.424;8.420;2023-03-01T09:47:00;12.30;;;8.40;;
20855;SDS011;63058;49.424;8.420;2023-03-01T09:49:28;14.40;;;9.53;;
20855;SDS011;63058;49.424;8.420;2023-03-01T09:52:12;21.03;;;10.40;;
20855;SDS011;63058;49.424;8.420;2023-03-01T09:54:53;18.73;;;12.43;;
20855;SDS011;63058;49.424;8.420;2023-03-01T09:57:25;14.20;;;9.97;;
20855;SDS011;63058;49.424;8.420;2023-03-01T10:02:27;15.10;;;9.83;;
20855;SDS011;63058;49.424;8.420;2023-03-01T10:10:52;13.70;;;9.83;;
20855;SDS011;63058;49.424;8.420;2023-03-01T10:13:19;17.23;;;10.87;;
20855;SDS011;63058;49.424;8.420;2023-03-01T10:15:54;14.60;;;9.60;;
20855;SDS011;63058;49.424;8.420;2023-03-01T10:18:34;16.40;;;9.93;;
20855;SDS011;63058;49.424;8.420;2023-03-01T10:21:12;12.53;;;9.37;;
20855;SDS011;63058;49.424;8.420;2023-03-01T10:23:41;16.60;;;10.80;;
20855;SDS011;63058;49.424;8.420;2023-03-01T10:29:02;12.73;;;9.03;;
20855;SDS011;63058;49.424;8.420;2023-03-01T10:31:35;12.80;;;9.13;;
20855;SDS011;63058;49.424;8.420;2023-03-01T10:34:21;20.00;;;12.83;;
20855;SDS011;63058;49.424;8.420;2023-03-01T10:36:55;14.47;;;10.33;;
20855;SDS011;63058;49.424;8.420;2023-03-01T10:39:25;14.70;;;9.87;;
20855;SDS011;63058;49.424;8.420;2023-03-01T10:41:58;16.67;;;10.73;;
20855;SDS011;63058;49.424;8.420;2023-03-01T10:44:38;12.20;;;8.83;;
20855;SDS011;63058;49.424;8.420;2023-03-01T10:47:04;18.20;;;11.47;;
20855;SDS011;63058;49.424;8.420;2023-03-01T10:49:30;13.38;;;9.82;;
20855;SDS011;63058;49.424;8.420;2023-03-01T10:51:56;15.20;;;9.80;;
20855;SDS011;63058;49.424;8.420;2023-03-01T10:54:43;15.48;;;10.70;;
20855;SDS011;63058;49.424;8.420;2023-03-01T10:57:51;12.93;;;9.05;;
20855;SDS011;63058;49.424;8.420;2023-03-01T11:00:20;12.93;;;9.32;;
20855;SDS011;63058;49.424;8.420;2023-03-01T11:02:50;13.48;;;8.48;;
20855;SDS011;63058;49.424;8.420;2023-03-01T11:05:27;10.32;;;8.00;;
20855;SDS011;63058;49.424;8.420;2023-03-01T11:07:56;13.43;;;9.32;;
20855;SDS011;63058;49.424;8.420;2023-03-01T11:10:27;12.68;;;9.40;;
20855;SDS011;63058;49.424;8.420;2023-03-01T11:13:06;18.27;;;10.98;;
20855;SDS011;63058;49.424;8.420;2023-03-01T11:15:34;15.50;;;10.25;;
20855;SDS011;63058;49.424;8.420;2023-03-01T11:18:00;15.57;;;10.85;;
20855;SDS011;63058;49.424;8.420;2023-03-01T11:20:35;12.18;;;8.88;;
20855;SDS011;63058;49.424;8.420;2023-03-01T11:23:04;12.02;;;8.88;;
20855;SDS011;63058;49.424;8.420;2023-03-01T11:25:38;10.63;;;7.75;;
20855;SDS011;63058;49.424;8.420;2023-03-01T11:28:09;11.50;;;8.43;;
20855;SDS011;63058;49.424;8.420;2023-03-01T11:33:32;16.88;;;12.18;;
20855;SDS011;63058;49.424;8.420;2023-03-01T11:38:49;19.08;;;13.68;;
20855;SDS011;63058;49.424;8.420;2023-03-01T11:43:59;13.65;;;9.35;;
20855;SDS011;63058;49.424;8.420;2023-03-01T11:46:41;10.18;;;7.70;;
20855;SDS011;63058;49.424;8.420;2023-03-01T11:52:15;17.48;;;13.27;;
20855;SDS011;63058;49.424;8.420;2023-03-01T11:54:53;17.27;;;12.80;;
20855;SDS011;63058;49.424;8.420;2023-03-01T12:03:07;15.02;;;11.15;;
20855;SDS011;63058;49.424;8.420;2023-03-01T12:08:34;17.02;;;12.45;;
20855;SDS011;63058;49.424;8.420;2023-03-01T12:35:42;12.13;;;9.40;;
20855;SDS011;63058;49.424;8.420;2023-03-01T12:46:36;11.35;;;8.75;;
20855;SDS011;63058;49.424;8.420;2023-03-01T12:49:24;10.90;;;8.63;;
20855;SDS011;63058;49.424;8.420;2023-03-01T12:51:58;13.15;;;9.40;;
20855;SDS011;63058;49.424;8.420;2023-03-01T12:54:27;13.68;;;9.68;;
20855;SDS011;63058;49.424;8.420;2023-03-01T12:56:59;11.27;;;8.95;;
20855;SDS011;63058;49.424;8.420;2023-03-01T13:00:16;14.60;;;10.35;;
20855;SDS011;63058;49.424;8.420;2023-03-01T13:02:39;11.93;;;9.95;;
20855;SDS011;63058;49.424;8.420;2023-03-01T13:08:16;13.02;;;9.25;;
20855;SDS011;63058;49.424;8.420;2023-03-01T13:11:04;11.40;;;8.88;;
20855;SDS011;63058;49.424;8.420;2023-03-01T13:13:36;15.35;;;10.38;;
20855;SDS011;63058;49.424;8.420;2023-03-01T13:16:19;9.75;;;7.78;;
20855;SDS011;63058;49.424;8.420;2023-03-01T13:21:39;10.35;;;8.32;;
20855;SDS011;63058;49.424;8.420;2023-03-01T13:24:23;12.07;;;9.85;;
20855;SDS011;63058;49.424;8.420;2023-03-01T13:32:26;12.35;;;8.88;;
20855;SDS011;63058;49.424;8.420;2023-03-01T13:35:00;10.45;;;7.85;;
20855;SDS011;63058;49.424;8.420;2023-03-01T13:37:48;11.18;;;8.13;;
20855;SDS011;63058;49.424;8.420;2023-03-01T13:42:48;15.20;;;11.25;;
20855;SDS011;63058;49.424;8.420;2023-03-01T13:47:52;10.77;;;8.20;;
20855;SDS011;63058;49.424;8.420;2023-03-01T13:50:28;10.00;;;8.20;;
20855;SDS011;63058;49.424;8.420;2023-03-01T13:52:59;11.13;;;8.70;;
20855;SDS011;63058;49.424;8.420;2023-03-01T13:55:48;10.80;;;7.75;;
20855;SDS011;63058;49.424;8.420;2023-03-01T13:58:15;11.73;;;8.93;;
20855;SDS011;63058;49.424;8.420;2023-03-01T14:00:44;9.30;;;7.20;;
20855;SDS011;63058;49.424;8.420;2023-03-01T14:03:17;10.43;;;8.30;;
20855;SDS011;63058;49.424;8.420;2023-03-01T14:05:57;10.43;;;7.88;;
20855;SDS011;63058;49.424;8.420;2023-03-01T14:08:24;9.57;;;7.20;;
20855;SDS011;63058;49.424;8.420;2023-03-01T14:21:36;10.85;;;8.40;;
20855;SDS011;63058;49.424;8.420;2023-03-01T14:24:01;11.65;;;9.40;;
20855;SDS011;63058;49.424;8.420;2023-03-01T14:26:28;10.15;;;8.10;;
20855;SDS011;63058;49.424;8.420;2023-03-01T14:28:56;11.45;;;8.55;;
20855;SDS011;63058;49.424;8.420;2023-03-01T14:34:01;10.18;;;8.18;;
20855;SDS011;63058;49.424;8.420;2023-03-01T14:36:27;10.77;;;8.40;;
20855;SDS011;63058;49.424;8.420;2023-03-01T14:38:58;9.25;;;7.10;;
20855;SDS011;63058;49.424;8.420;2023-03-01T14:41:30;10.38;;;7.80;;
20855;SDS011;63058;49.424;8.420;2023-03-01T14:44:00;10.95;;;7.35;;
20855;SDS011;63058;49.424;8.420;2023-03-01T14:46:41;9.38;;;7.00;;
20855;SDS011;63058;49.424;8.420;2023-03-01T14:51:37;10.88;;;8.68;;
20855;SDS011;63058;49.424;8.420;2023-03-01T14:54:10;11.55;;;9.40;;
20855;SDS011;63058;49.424;8.420;2023-03-01T14:57:00;10.07;;;7.72;;
20855;SDS011;63058;49.424;8.420;2023-03-01T14:59:27;10.27;;;7.90;;
20855;SDS011;63058;49.424;8.420;2023-03-01T15:01:54;7.40;;;6.25;;
20855;SDS011;63058;49.424;8.420;2023-03-01T15:04:22;9.55;;;6.55;;
20855;SDS011;63058;49.424;8.420;2023-03-01T15:06:51;8.20;;;6.45;;
20855;SDS011;63058;49.424;8.420;2023-03-01T15:09:17;9.38;;;7.30;;
20855;SDS011;63058;49.424;8.420;2023-03-01T15:11:44;8.82;;;6.65;;
20855;SDS011;63058;49.424;8.420;2023-03-01T15:17:19;10.55;;;6.30;;
20855;SDS011;63058;49.424;8.420;2023-03-01T15:19:52;6.95;;;5.38;;
20855;SDS011;63058;49.424;8.420;2023-03-01T15:22:25;11.88;;;6.53;;
20855;SDS011;63058;49.424;8.420;2023-03-01T15:24:51;7.88;;;6.05;;
20855;SDS011;63058;49.424;8.420;2023-03-01T15:27:19;6.95;;;5.85;;
20855;SDS011;63058;49.424;8.420;2023-03-01T15:29:58;8.57;;;6.07;;
20855;SDS011;63058;49.424;8.420;2023-03-01T15:32:31;7.75;;;6.40;;
20855;SDS011;63058;49.424;8.420;2023-03-01T15:35:32;6.95;;;5.45;;
20855;SDS011;63058;49.424;8.420;2023-03-01T15:38:24;10.18;;;6.55;;
20855;SDS011;63058;49.424;8.420;2023-03-01T15:40:54;7.63;;;5.25;;
20855;SDS011;63058;49.424;8.420;2023-03-01T15:46:36;7.32;;;5.43;;
20855;SDS011;63058;49.424;8.420;2023-03-01T15:49:19;6.85;;;5.53;;
20855;SDS011;63058;49.424;8.420;2023-03-01T15:52:01;7.10;;;5.35;;
20855;SDS011;63058;49.424;8.420;2023-03-01T15:54:27;6.25;;;5.22;;
20855;SDS011;63058;49.424;8.420;2023-03-01T15:56:54;7.45;;;5.60;;
20855;SDS011;63058;49.424;8.420;2023-03-01T15:59:20;12.63;;;5.28;;
20855;SDS011;63058;49.424;8.420;2023-03-01T16:01:47;13.40;;;6.40;;
20855;SDS011;63058;49.424;8.420;2023-03-01T16:04:14;7.55;;;5.80;;
20855;SDS011;63058;49.424;8.420;2023-03-01T16:06:52;6.30;;;4.80;;
20855;SDS011;63058;49.424;8.420;2023-03-01T16:09:22;5.93;;;4.60;;
20855;SDS011;63058;49.424;8.420;2023-03-01T16:11:49;7.65;;;5.50;;
20855;SDS011;63058;49.424;8.420;2023-03-01T16:14:16;9.50;;;6.05;;
20855;SDS011;63058;49.424;8.420;2023-03-01T16:16:42;7.85;;;5.57;;
20855;SDS011;63058;49.424;8.420;2023-03-01T16:19:08;7.20;;;5.05;;
20855;SDS011;63058;49.424;8.420;2023-03-01T16:21:35;9.07;;;5.25;;
20855;SDS011;63058;49.424;8.420;2023-03-01T16:24:01;7.50;;;5.30;;
20855;SDS011;63058;49.424;8.420;2023-03-01T16:26:27;6.93;;;5.13;;
20855;SDS011;63058;49.424;8.420;2023-03-01T16:28:56;7.22;;;5.43;;
20855;SDS011;63058;49.424;8.420;2023-03-01T16:31:22;7.82;;;5.30;;
20855;SDS011;63058;49.424;8.420;2023-03-01T16:33:52;6.63;;;4.82;;
20855;SDS011;63058;49.424;8.420;2023-03-01T16:36:19;7.28;;;5.07;;
20855;SDS011;63058;49.424;8.420;2023-03-01T16:38:48;7.97;;;5.20;;
20855;SDS011;63058;49.424;8.420;2023-03-01T16:41:15;8.65;;;5.00;;
20855;SDS011;63058;49.424;8.420;2023-03-01T16:43:43;8.18;;;5.15;;
20855;SDS011;63058;49.424;8.420;2023-03-01T16:46:12;9.10;;;5.85;;
20855;SDS011;63058;49.424;8.420;2023-03-01T16:48:40;7.97;;;5.43;;
20855;SDS011;63058;49.424;8.420;2023-03-01T16:51:06;5.97;;;4.73;;
20855;SDS011;63058;49.424;8.420;2023-03-01T16:53:33;7.63;;;5.30;;
20855;SDS011;63058;49.424;8.420;2023-03-01T16:56:01;8.00;;;4.70;;